sensor_id;sensor_type;location;lat;lon;timestamp;pressure;altitude;pressure_sealevel;temperature;humidity
967;BME280;56108;48.730;9.304;2023-02-23T00:01:33;97250.59;;;7.92;100.00
967;BME280;56108;48.730;9.304;2023-02-23T00:03:42;97255.00;;;7.78;100.00
967;BME280;56108;48.730;9.304;2023-02-23T00:05:53;97244.16;;;7.69;100.00
967;BME280;56108;48.730;9.304;2023-02-23T00:08:03;97253.56;;;7.87;100.00
967;BME280;56108;48.730;9.304;2023-02-23T00:10:13;97255.63;;;7.96;100.00
967;BME280;56108;48.730;9.304;2023-02-23T00:12:23;97255.03;;;8.05;100.00
967;BME280;56108;48.730;9.304;2023-02-23T00:14:31;97250.13;;;7.99;100.00
967;BME280;56108;48.730;9.304;2023-02-23T00:16:39;97254.41;;;7.88;100.00
967;BME280;56108;48.730;9.304;2023-02-23T00:18:50;97250.28;;;7.83;100.00
967;BME280;56108;48.730;9.304;2023-02-23T00:20:59;97243.84;;;7.73;100.00
967;BME280;56108;48.730;9.304;2023-02-23T00:23:09;97243.19;;;7.70;100.00
967;BME280;56108;48.730;9.304;2023-02-23T00:25:18;97239.19;;;7.77;100.00
967;BME280;56108;48.730;9.304;2023-02-23T00:27:26;97245.03;;;7.82;100.00
967;BME280;56108;48.730;9.304;2023-02-23T00:29:37;97242.88;;;7.89;100.00
967;BME280;56108;48.730;9.304;2023-02-23T00:31:46;97246.56;;;7.86;100.00
967;BME280;56108;48.730;9.304;2023-02-23T00:33:57;97238.81;;;7.83;100.00
967;BME280;56108;48.730;9.304;2023-02-23T00:36:08;97242.22;;;7.71;100.00
967;BME280;56108;48.730;9.304;2023-02-23T00:38:19;97238.00;;;7.68;100.00
967;BME280;56108;48.730;9.304;2023-02-23T00:40:28;97237.16;;;7.68;100.00
967;BME280;56108;48.730;9.304;2023-02-23T00:42:37;97243.47;;;7.65;100.00
967;BME280;56108;48.730;9.304;2023-02-23T00:44:45;97245.56;;;7.74;100.00
967;BME280;56108;48.730;9.304;2023-02-23T00:46:53;97240.69;;;7.81;100.00
967;BME280;56108;48.730;9.304;2023-02-23T00:49:01;97245.19;;;7.93;100.00
967;BME280;56108;48.730;9.304;2023-02-23T00:51:10;97241.91;;;7.90;100.00
967;BME280;56108;48.730;9.304;2023-02-23T00:53:21;97239.28;;;7.90;100.00
967;BME280;56108;48.730;9.304;2023-02-23T00:55:31;97240.22;;;7.89;100.00
967;BME280;56108;48.730;9.304;2023-02-23T00:57:40;97238.31;;;7.91;100.00
967;BME280;56108;48.730;9.304;2023-02-23T00:59:48;97243.06;;;7.85;100.00
967;BME280;56108;48.730;9.304;2023-02-23T01:01:56;97236.06;;;7.84;100.00
967;BME280;56108;48.730;9.304;2023-02-23T01:04:04;97237.50;;;7.76;100.00
967;BME280;56108;48.730;9.304;2023-02-23T01:06:15;97237.03;;;7.69;100.00
967;BME280;56108;48.730;9.304;2023-02-23T01:08:28;97236.88;;;7.58;100.00
967;BME280;56108;48.730;9.304;2023-02-23T01:10:38;97233.09;;;7.48;100.00
967;BME280;56108;48.730;9.304;2023-02-23T01:12:50;97220.91;;;7.45;100.00
967;BME280;56108;48.730;9.304;2023-02-23T01:15:00;97224.78;;;7.40;100.00
967;BME280;56108;48.730;9.304;2023-02-23T01:17:08;97224.78;;;7.40;100.00
967;BME280;56108;48.730;9.304;2023-02-23T01:19:16;97229.91;;;7.28;100.00
967;BME280;56108;48.730;9.304;2023-02-23T01:21:28;97216.22;;;7.22;100.00
967;BME280;56108;48.730;9.304;2023-02-23T01:23:39;97216.09;;;7.38;100.00
967;BME280;56108;48.730;9.304;2023-02-23T01:25:47;97225.72;;;7.53;100.00
967;BME280;56108;48.730;9.304;2023-02-23T01:27:55;97237.28;;;7.52;100.00
967;BME280;56108;48.730;9.304;2023-02-23T01:32:11;97224.03;;;7.52;100.00
967;BME280;56108;48.730;9.304;2023-02-23T01:34:19;97224.88;;;7.38;100.00
967;BME280;56108;48.730;9.304;2023-02-23T01:36:28;97217.91;;;7.37;100.00
967;BME280;56108;48.730;9.304;2023-02-23T01:38:42;97214.31;;;7.38;100.00
967;BME280;56108;48.730;9.304;2023-02-23T01:40:50;97213.75;;;7.19;100.00
967;BME280;56108;48.730;9.304;2023-02-23T01:43:05;97209.47;;;7.30;100.00
967;BME280;56108;48.730;9.304;2023-02-23T01:45:22;97198.81;;;7.18;100.00
967;BME280;56108;48.730;9.304;2023-02-23T01:47:31;97202.31;;;7.04;100.00
967;BME280;56108;48.730;9.304;2023-02-23T01:49:40;97207.97;;;7.12;100.00
967;BME280;56108;48.730;9.304;2023-02-23T01:51:52;97208.84;;;7.13;100.00
967;BME280;56108;48.730;9.304;2023-02-23T01:54:10;97199.47;;;7.07;100.00
967;BME280;56108;48.730;9.304;2023-02-23T01:56:30;97206.09;;;7.00;100.00
967;BME280;56108;48.730;9.304;2023-02-23T01:58:41;97196.94;;;6.91;100.00
967;BME280;56108;48.730;9.304;2023-02-23T02:00:54;97191.16;;;6.85;100.00
967;BME280;56108;48.730;9.304;2023-02-23T02:03:09;97190.97;;;6.88;100.00
967;BME280;56108;48.730;9.304;2023-02-23T02:05:20;97187.09;;;6.79;100.00
967;BME280;56108;48.730;9.304;2023-02-23T02:07:29;97187.16;;;6.77;100.00
967;BME280;56108;48.730;9.304;2023-02-23T02:09:42;97181.69;;;6.66;100.00
967;BME280;56108;48.730;9.304;2023-02-23T02:12:11;97175.81;;;6.61;100.00
967;BME280;56108;48.730;9.304;2023-02-23T02:14:22;97172.34;;;6.61;100.00
967;BME280;56108;48.730;9.304;2023-02-23T02:16:50;97167.53;;;6.53;100.00
967;BME280;56108;48.730;9.304;2023-02-23T02:25:03;97154.84;;;6.44;100.00
967;BME280;56108;48.730;9.304;2023-02-23T02:27:31;97150.69;;;6.40;100.00
967;BME280;56108;48.730;9.304;2023-02-23T02:30:04;97140.69;;;6.45;100.00
967;BME280;56108;48.730;9.304;2023-02-23T02:32:44;97140.00;;;6.41;100.00
967;BME280;56108;48.730;9.304;2023-02-23T02:35:23;97135.78;;;6.39;100.00
967;BME280;56108;48.730;9.304;2023-02-23T02:37:57;97131.50;;;6.36;100.00
967;BME280;56108;48.730;9.304;2023-02-23T02:40:13;97129.94;;;6.48;100.00
967;BME280;56108;48.730;9.304;2023-02-23T02:42:29;97131.16;;;6.42;100.00
967;BME280;56108;48.730;9.304;2023-02-23T02:44:49;97132.94;;;6.42;100.00
967;BME280;56108;48.730;9.304;2023-02-23T02:47:04;97126.63;;;6.44;100.00
967;BME280;56108;48.730;9.304;2023-02-23T02:49:23;97124.44;;;6.51;100.00
967;BME280;56108;48.730;9.304;2023-02-23T02:51:37;97127.03;;;6.52;100.00
967;BME280;56108;48.730;9.304;2023-02-23T02:53:57;97116.78;;;6.46;100.00
967;BME280;56108;48.730;9.304;2023-02-23T02:56:13;97118.59;;;6.46;100.00
967;BME280;56108;48.730;9.304;2023-02-23T02:58:25;97122.34;;;6.42;100.00
967;BME280;56108;48.730;9.304;2023-02-23T03:00:36;97127.75;;;6.40;100.00
967;BME280;56108;48.730;9.304;2023-02-23T03:02:57;97118.59;;;6.46;100.00
967;BME280;56108;48.730;9.304;2023-02-23T03:05:19;97128.72;;;6.53;100.00
967;BME280;56108;48.730;9.304;2023-02-23T03:07:47;97128.13;;;6.63;100.00
967;BME280;56108;48.730;9.304;2023-02-23T03:10:18;97130.88;;;6.61;100.00
967;BME280;56108;48.730;9.304;2023-02-23T03:12:49;97129.00;;;6.63;100.00
967;BME280;56108;48.730;9.304;2023-02-23T03:15:35;97135.16;;;6.64;100.00
967;BME280;56108;48.730;9.304;2023-02-23T03:18:01;97129.84;;;6.64;100.00
967;BME280;56108;48.730;9.304;2023-02-23T03:20:36;97128.81;;;6.66;100.00
967;BME280;56108;48.730;9.304;2023-02-23T03:23:08;97118.06;;;6.69;100.00
967;BME280;56108;48.730;9.304;2023-02-23T03:25:44;97127.00;;;6.67;100.00
967;BME280;56108;48.730;9.304;2023-02-23T03:28:12;97131.72;;;6.62;100.00
967;BME280;56108;48.730;9.304;2023-02-23T03:30:41;97131.25;;;6.55;100.00
967;BME280;56108;48.730;9.304;2023-02-23T03:33:09;97129.28;;;6.59;100.00
967;BME280;56108;48.730;9.304;2023-02-23T03:35:36;97134.47;;;6.60;100.00
967;BME280;56108;48.730;9.304;2023-02-23T03:38:04;97138.63;;;6.64;100.00
967;BME280;56108;48.730;9.304;2023-02-23T03:40:28;97132.69;;;6.61;100.00
967;BME280;56108;48.730;9.304;2023-02-23T03:42:56;97131.91;;;6.73;100.00
967;BME280;56108;48.730;9.304;2023-02-23T03:45:20;97145.25;;;6.71;100.00
967;BME280;56108;48.730;9.304;2023-02-23T03:47:43;97140.22;;;6.67;100.00
967;BME280;56108;48.730;9.304;2023-02-23T03:50:11;97137.41;;;6.70;100.00
967;BME280;56108;48.730;9.304;2023-02-23T03:52:39;97142.13;;;6.65;100.00
967;BME280;56108;48.730;9.304;2023-02-23T03:55:03;97143.16;;;6.62;100.00
967;BME280;56108;48.730;9.304;2023-02-23T03:57:26;97142.88;;;6.67;100.00
967;BME280;56108;48.730;9.304;2023-02-23T03:59:53;97144.41;;;6.71;100.00
967;BME280;56108;48.730;9.304;2023-02-23T04:02:19;97143.72;;;6.67;100.00
967;BME280;56108;48.730;9.304;2023-02-23T04:04:41;97141.00;;;6.69;100.00
967;BME280;56108;48.730;9.304;2023-02-23T04:07:06;97145.34;;;6.70;100.00
967;BME280;56108;48.730;9.304;2023-02-23T04:09:27;97144.41;;;6.71;100.00
967;BME280;56108;48.730;9.304;2023-02-23T04:11:50;97144.41;;;6.71;100.00
967;BME280;56108;48.730;9.304;2023-02-23T04:14:17;97145.13;;;6.73;100.00
967;BME280;56108;48.730;9.304;2023-02-23T04:16:27;97152.22;;;6.87;100.00
967;BME280;56108;48.730;9.304;2023-02-23T04:18:35;97159.72;;;6.80;100.00
967;BME280;56108;48.730;9.304;2023-02-23T04:20:43;97158.00;;;6.79;100.00
967;BME280;56108;48.730;9.304;2023-02-23T04:22:51;97165.28;;;6.75;100.00
967;BME280;56108;48.730;9.304;2023-02-23T04:24:59;97161.50;;;6.79;100.00
967;BME280;56108;48.730;9.304;2023-02-23T04:27:07;97161.88;;;6.73;100.00
967;BME280;56108;48.730;9.304;2023-02-23T04:29:15;97163.47;;;6.76;100.00
967;BME280;56108;48.730;9.304;2023-02-23T04:31:22;97163.84;;;6.70;100.00
967;BME280;56108;48.730;9.304;2023-02-23T04:33:34;97165.81;;;6.66;100.00
967;BME280;56108;48.730;9.304;2023-02-23T04:35:41;97153.66;;;6.64;100.00
967;BME280;56108;48.730;9.304;2023-02-23T04:37:50;97153.84;;;6.61;100.00
967;BME280;56108;48.730;9.304;2023-02-23T04:39:58;97154.09;;;6.56;100.00
967;BME280;56108;48.730;9.304;2023-02-23T04:42:05;97153.16;;;6.57;100.00
967;BME280;56108;48.730;9.304;2023-02-23T04:44:13;97150.50;;;6.57;100.00
967;BME280;56108;48.730;9.304;2023-02-23T04:46:21;97150.50;;;6.57;100.00
967;BME280;56108;48.730;9.304;2023-02-23T04:48:29;97146.84;;;6.60;100.00
967;BME280;56108;48.730;9.304;2023-02-23T04:50:40;97147.13;;;6.55;100.00
967;BME280;56108;48.730;9.304;2023-02-23T04:52:48;97147.78;;;6.59;100.00
967;BME280;56108;48.730;9.304;2023-02-23T04:54:57;97142.00;;;6.52;100.00
967;BME280;56108;48.730;9.304;2023-02-23T04:57:05;97136.06;;;6.48;100.00
967;BME280;56108;48.730;9.304;2023-02-23T04:59:13;97148.81;;;6.56;100.00
967;BME280;56108;48.730;9.304;2023-02-23T05:01:21;97143.53;;;6.56;100.00
967;BME280;56108;48.730;9.304;2023-02-23T05:03:29;97146.28;;;6.54;100.00
967;BME280;56108;48.730;9.304;2023-02-23T05:05:40;97147.22;;;6.53;100.00
967;BME280;56108;48.730;9.304;2023-02-23T05:07:50;97143.72;;;6.53;100.00
967;BME280;56108;48.730;9.304;2023-02-23T05:09:58;97140.88;;;6.56;100.00
967;BME280;56108;48.730;9.304;2023-02-23T05:12:06;97134.84;;;6.54;100.00
967;BME280;56108;48.730;9.304;2023-02-23T05:14:14;97132.59;;;6.48;100.00
967;BME280;56108;48.730;9.304;2023-02-23T05:16:22;97135.03;;;6.51;100.00
967;BME280;56108;48.730;9.304;2023-02-23T05:18:30;97132.66;;;6.46;100.00
967;BME280;56108;48.730;9.304;2023-02-23T05:20:43;97124.72;;;6.46;100.00
967;BME280;56108;48.730;9.304;2023-02-23T05:22:51;97128.41;;;6.44;100.00
967;BME280;56108;48.730;9.304;2023-02-23T05:24:59;97129.28;;;6.44;100.00
967;BME280;56108;48.730;9.304;2023-02-23T05:27:13;97115.88;;;6.47;100.00
967;BME280;56108;48.730;9.304;2023-02-23T05:29:27;97124.66;;;6.48;100.00
967;BME280;56108;48.730;9.304;2023-02-23T05:31:35;97125.41;;;6.50;100.00
967;BME280;56108;48.730;9.304;2023-02-23T05:33:43;97121.53;;;6.56;100.00
967;BME280;56108;48.730;9.304;2023-02-23T05:35:54;97128.72;;;6.53;100.00
967;BME280;56108;48.730;9.304;2023-02-23T05:38:02;97128.72;;;6.53;100.00
967;BME280;56108;48.730;9.304;2023-02-23T05:40:12;97129.94;;;6.48;100.00
967;BME280;56108;48.730;9.304;2023-02-23T05:42:20;97125.69;;;6.45;100.00
967;BME280;56108;48.730;9.304;2023-02-23T05:44:28;97122.19;;;6.45;100.00
967;BME280;56108;48.730;9.304;2023-02-23T05:46:36;97116.78;;;6.46;100.00
967;BME280;56108;48.730;9.304;2023-02-23T05:48:44;97116.78;;;6.46;100.00
967;BME280;56108;48.730;9.304;2023-02-23T05:51:00;97122.09;;;6.46;100.00
967;BME280;56108;48.730;9.304;2023-02-23T05:53:08;97118.22;;;6.52;100.00
967;BME280;56108;48.730;9.304;2023-02-23T05:55:16;97121.34;;;6.59;100.00
967;BME280;56108;48.730;9.304;2023-02-23T05:57:24;97119.47;;;6.61;100.00
967;BME280;56108;48.730;9.304;2023-02-23T05:59:32;97116.44;;;6.52;100.00
967;BME280;56108;48.730;9.304;2023-02-23T06:01:40;97124.44;;;6.51;100.00
967;BME280;56108;48.730;9.304;2023-02-23T06:03:48;97120.13;;;6.50;100.00
967;BME280;56108;48.730;9.304;2023-02-23T06:05:59;97114.16;;;6.46;100.00
967;BME280;56108;48.730;9.304;2023-02-23T06:08:08;97123.22;;;6.57;100.00
967;BME280;56108;48.730;9.304;2023-02-23T06:10:17;97116.72;;;6.62;100.00
967;BME280;56108;48.730;9.304;2023-02-23T06:12:24;97121.25;;;6.60;100.00
967;BME280;56108;48.730;9.304;2023-02-23T06:14:32;97122.22;;;6.59;100.00
967;BME280;56108;48.730;9.304;2023-02-23T06:16:40;97123.78;;;6.62;100.00
967;BME280;56108;48.730;9.304;2023-02-23T06:18:49;97127.56;;;6.58;100.00
967;BME280;56108;48.730;9.304;2023-02-23T06:21:01;97131.34;;;6.68;100.00
967;BME280;56108;48.730;9.304;2023-02-23T06:23:08;97135.78;;;6.67;100.00
967;BME280;56108;48.730;9.304;2023-02-23T06:25:16;97145.25;;;6.71;100.00
967;BME280;56108;48.730;9.304;2023-02-23T06:27:24;97139.66;;;6.62;100.00
967;BME280;56108;48.730;9.304;2023-02-23T06:29:33;97143.53;;;6.70;100.00
967;BME280;56108;48.730;9.304;2023-02-23T06:31:41;97146.47;;;6.66;100.00
967;BME280;56108;48.730;9.304;2023-02-23T06:33:49;97150.06;;;6.65;100.00
967;BME280;56108;48.730;9.304;2023-02-23T06:36:00;97147.41;;;6.65;100.00
967;BME280;56108;48.730;9.304;2023-02-23T06:38:07;97151.56;;;6.83;100.00
967;BME280;56108;48.730;9.304;2023-02-23T06:40:16;97159.78;;;6.78;100.00
967;BME280;56108;48.730;9.304;2023-02-23T06:42:24;97157.91;;;6.80;100.00
967;BME280;56108;48.730;9.304;2023-02-23T06:44:32;97163.38;;;6.77;100.00
967;BME280;56108;48.730;9.304;2023-02-23T06:46:40;97161.03;;;6.87;100.00
967;BME280;56108;48.730;9.304;2023-02-23T06:48:49;97164.44;;;6.89;100.00
967;BME280;56108;48.730;9.304;2023-02-23T06:51:00;97167.44;;;6.97;100.00
967;BME280;56108;48.730;9.304;2023-02-23T06:53:08;97172.38;;;6.89;100.00
967;BME280;56108;48.730;9.304;2023-02-23T06:55:16;97170.56;;;6.90;100.00
967;BME280;56108;48.730;9.304;2023-02-23T06:57:25;97170.00;;;6.85;100.00
967;BME280;56108;48.730;9.304;2023-02-23T06:59:33;97172.72;;;6.83;100.00
967;BME280;56108;48.730;9.304;2023-02-23T07:01:41;97169.63;;;6.91;100.00
967;BME280;56108;48.730;9.304;2023-02-23T07:03:49;97177.34;;;6.94;100.00
967;BME280;56108;48.730;9.304;2023-02-23T07:05:59;97184.44;;;6.93;100.00
967;BME280;56108;48.730;9.304;2023-02-23T07:08:10;97183.78;;;7.04;100.00
967;BME280;56108;48.730;9.304;2023-02-23T07:10:18;97193.44;;;7.05;100.00
967;BME280;56108;48.730;9.304;2023-02-23T07:12:26;97194.28;;;7.05;100.00
967;BME280;56108;48.730;9.304;2023-02-23T07:14:34;97197.84;;;7.04;100.00
967;BME280;56108;48.730;9.304;2023-02-23T07:16:42;97196.16;;;7.18;100.00
967;BME280;56108;48.730;9.304;2023-02-23T07:18:50;97208.34;;;7.20;100.00
967;BME280;56108;48.730;9.304;2023-02-23T07:21:01;97206.94;;;7.15;100.00
967;BME280;56108;48.730;9.304;2023-02-23T07:23:09;97208.44;;;7.19;100.00
967;BME280;56108;48.730;9.304;2023-02-23T07:25:17;97211.88;;;7.21;100.00
967;BME280;56108;48.730;9.304;2023-02-23T07:27:25;97209.78;;;7.26;100.00
967;BME280;56108;48.730;9.304;2023-02-23T07:29:33;97214.88;;;7.29;100.00
967;BME280;56108;48.730;9.304;2023-02-23T07:31:41;97212.31;;;7.27;100.00
967;BME280;56108;48.730;9.304;2023-02-23T07:33:49;97217.50;;;7.29;100.00
967;BME280;56108;48.730;9.304;2023-02-23T07:36:02;97217.06;;;7.22;100.00
967;BME280;56108;48.730;9.304;2023-02-23T07:38:10;97219.59;;;7.24;100.00
967;BME280;56108;48.730;9.304;2023-02-23T07:40:18;97219.50;;;7.25;100.00
967;BME280;56108;48.730;9.304;2023-02-23T07:42:26;97218.19;;;7.32;100.00
967;BME280;56108;48.730;9.304;2023-02-23T07:44:34;97225.84;;;7.37;100.00
967;BME280;56108;48.730;9.304;2023-02-23T07:46:42;97229.22;;;7.39;100.00
967;BME280;56108;48.730;9.304;2023-02-23T07:48:50;97224.31;;;7.47;100.00
967;BME280;56108;48.730;9.304;2023-02-23T07:50:58;97222.81;;;7.43;100.00
967;BME280;56108;48.730;9.304;2023-02-23T07:53:09;97227.25;;;7.57;100.00
967;BME280;56108;48.730;9.304;2023-02-23T07:55:18;97232.81;;;7.52;100.00
967;BME280;56108;48.730;9.304;2023-02-23T07:57:27;97235.19;;;7.57;100.00
967;BME280;56108;48.730;9.304;2023-02-23T07:59:35;97239.25;;;7.63;100.00
967;BME280;56108;48.730;9.304;2023-02-23T08:01:43;97244.16;;;7.69;100.00
967;BME280;56108;48.730;9.304;2023-02-23T08:03:55;97247.63;;;7.69;100.00
967;BME280;56108;48.730;9.304;2023-02-23T08:06:03;97240.16;;;7.62;100.00
967;BME280;56108;48.730;9.304;2023-02-23T08:08:14;97245.72;;;7.71;100.00
967;BME280;56108;48.730;9.304;2023-02-23T08:10:23;97240.31;;;7.87;100.00
967;BME280;56108;48.730;9.304;2023-02-23T08:12:31;97248.53;;;7.82;100.00
967;BME280;56108;48.730;9.304;2023-02-23T08:14:40;97244.31;;;7.80;100.00
967;BME280;56108;48.730;9.304;2023-02-23T08:16:49;97242.91;;;7.74;100.00
967;BME280;56108;48.730;9.304;2023-02-23T08:18:58;97240.72;;;7.67;100.00
967;BME280;56108;48.730;9.304;2023-02-23T08:21:06;97245.94;;;7.68;100.00
967;BME280;56108;48.730;9.304;2023-02-23T08:23:17;97250.69;;;7.63;100.00
967;BME280;56108;48.730;9.304;2023-02-23T08:25:25;97249.44;;;7.69;100.00
967;BME280;56108;48.730;9.304;2023-02-23T08:27:34;97257.81;;;7.90;100.00
967;BME280;56108;48.730;9.304;2023-02-23T08:29:41;97262.22;;;8.03;100.00
967;BME280;56108;48.730;9.304;2023-02-23T08:31:49;97262.59;;;7.97;100.00
967;BME280;56108;48.730;9.304;2023-02-23T08:33:58;97266.09;;;7.98;100.00
967;BME280;56108;48.730;9.304;2023-02-23T08:36:07;97263.72;;;8.07;100.00
967;BME280;56108;48.730;9.304;2023-02-23T08:38:17;97261.38;;;8.03;100.00
967;BME280;56108;48.730;9.304;2023-02-23T08:40:27;97257.28;;;8.11;100.00
967;BME280;56108;48.730;9.304;2023-02-23T08:42:35;97260.97;;;8.09;100.00
967;BME280;56108;48.730;9.304;2023-02-23T08:44:42;97252.66;;;8.01;100.00
967;BME280;56108;48.730;9.304;2023-02-23T08:46:50;97260.34;;;8.05;100.00
967;BME280;56108;48.730;9.304;2023-02-23T08:48:59;97263.38;;;8.26;100.00
967;BME280;56108;48.730;9.304;2023-02-23T08:51:08;97271.13;;;8.29;100.00
967;BME280;56108;48.730;9.304;2023-02-23T08:53:19;97276.97;;;8.34;100.00
967;BME280;56108;48.730;9.304;2023-02-23T08:55:29;97273.78;;;8.29;100.00
967;BME280;56108;48.730;9.304;2023-02-23T08:57:39;97273.78;;;8.29;100.00
967;BME280;56108;48.730;9.304;2023-02-23T08:59:47;97277.78;;;8.36;100.00
967;BME280;56108;48.730;9.304;2023-02-23T09:01:55;97279.13;;;8.56;100.00
967;BME280;56108;48.730;9.304;2023-02-23T09:04:04;97293.34;;;8.68;100.00
967;BME280;56108;48.730;9.304;2023-02-23T09:06:16;97288.34;;;8.63;100.00
967;BME280;56108;48.730;9.304;2023-02-23T09:08:27;97295.84;;;8.84;100.00
967;BME280;56108;48.730;9.304;2023-02-23T09:10:35;97300.91;;;8.74;100.00
967;BME280;56108;48.730;9.304;2023-02-23T09:12:43;97299.81;;;8.64;100.00
967;BME280;56108;48.730;9.304;2023-02-23T09:14:51;97296.63;;;8.72;100.00
967;BME280;56108;48.730;9.304;2023-02-23T09:17:00;97297.53;;;8.85;100.00
967;BME280;56108;48.730;9.304;2023-02-23T09:19:08;97299.69;;;9.05;100.00
967;BME280;56108;48.730;9.304;2023-02-23T09:21:18;97307.72;;;8.91;100.00
967;BME280;56108;48.730;9.304;2023-02-23T09:23:32;97307.41;;;8.96;100.00
967;BME280;56108;48.730;9.304;2023-02-23T09:25:44;97300.59;;;8.92;100.00
967;BME280;56108;48.730;9.304;2023-02-23T09:27:53;97295.94;;;9.08;100.00
967;BME280;56108;48.730;9.304;2023-02-23T09:30:06;97297.34;;;9.01;100.00
967;BME280;56108;48.730;9.304;2023-02-23T09:32:14;97298.59;;;9.08;100.00
967;BME280;56108;48.730;9.304;2023-02-23T09:34:22;97306.47;;;9.22;100.00
967;BME280;56108;48.730;9.304;2023-02-23T09:36:33;97305.63;;;9.22;100.00
967;BME280;56108;48.730;9.304;2023-02-23T09:38:45;97300.63;;;9.17;100.00
967;BME280;56108;48.730;9.304;2023-02-23T09:40:53;97302.75;;;9.12;100.00
967;BME280;56108;48.730;9.304;2023-02-23T09:43:04;97296.72;;;9.10;100.00
967;BME280;56108;48.730;9.304;2023-02-23T09:45:19;97302.56;;;9.15;100.00
967;BME280;56108;48.730;9.304;2023-02-23T09:47:38;97300.44;;;9.20;100.00
967;BME280;56108;48.730;9.304;2023-02-23T09:49:48;97310.09;;;9.21;100.00
967;BME280;56108;48.730;9.304;2023-02-23T09:51:58;97297.88;;;9.19;100.00
967;BME280;56108;48.730;9.304;2023-02-23T09:54:11;97300.97;;;9.51;100.00
967;BME280;56108;48.730;9.304;2023-02-23T09:56:26;97307.75;;;9.55;100.00
967;BME280;56108;48.730;9.304;2023-02-23T09:58:37;97311.66;;;9.75;100.00
967;BME280;56108;48.730;9.304;2023-02-23T10:00:49;97313.56;;;9.98;100.00
967;BME280;56108;48.730;9.304;2023-02-23T10:03:17;97316.19;;;10.11;100.00
967;BME280;56108;48.730;9.304;2023-02-23T10:05:31;97309.91;;;10.49;100.00
967;BME280;56108;48.730;9.304;2023-02-23T10:07:45;97309.97;;;10.36;100.00
967;BME280;56108;48.730;9.304;2023-02-23T10:10:09;97313.84;;;10.91;100.00
967;BME280;56108;48.730;9.304;2023-02-23T10:12:25;97318.84;;;10.48;100.00
967;BME280;56108;48.730;9.304;2023-02-23T10:15:02;97314.56;;;10.58;100.00
967;BME280;56108;48.730;9.304;2023-02-23T10:17:22;97317.03;;;10.48;100.00
967;BME280;56108;48.730;9.304;2023-02-23T10:19:37;97313.34;;;10.38;100.00
967;BME280;56108;48.730;9.304;2023-02-23T10:21:53;97309.75;;;10.39;100.00
967;BME280;56108;48.730;9.304;2023-02-23T10:24:04;97312.47;;;10.85;100.00
967;BME280;56108;48.730;9.304;2023-02-23T10:26:19;97312.72;;;11.17;100.00
967;BME280;56108;48.730;9.304;2023-02-23T10:28:33;97312.91;;;11.49;100.00
967;BME280;56108;48.730;9.304;2023-02-23T10:30:41;97324.47;;;12.06;100.00
967;BME280;56108;48.730;9.304;2023-02-23T10:32:53;97325.00;;;12.54;97.88
967;BME280;56108;48.730;9.304;2023-02-23T10:35:09;97319.44;;;12.78;95.06
967;BME280;56108;48.730;9.304;2023-02-23T10:37:18;97324.53;;;13.14;93.24
967;BME280;56108;48.730;9.304;2023-02-23T10:39:28;97318.50;;;13.32;92.58
967;BME280;56108;48.730;9.304;2023-02-23T10:41:41;97326.66;;;13.82;91.15
967;BME280;56108;48.730;9.304;2023-02-23T10:43:49;97328.84;;;13.89;89.62
967;BME280;56108;48.730;9.304;2023-02-23T10:45:57;97333.94;;;13.71;83.63
967;BME280;56108;48.730;9.304;2023-02-23T10:48:07;97325.75;;;13.63;85.63
967;BME280;56108;48.730;9.304;2023-02-23T10:50:15;97319.69;;;13.91;86.42
967;BME280;56108;48.730;9.304;2023-02-23T10:52:28;97325.06;;;14.01;83.45
967;BME280;56108;48.730;9.304;2023-02-23T10:54:39;97321.16;;;13.74;83.54
967;BME280;56108;48.730;9.304;2023-02-23T10:56:54;97325.03;;;13.91;85.51
967;BME280;56108;48.730;9.304;2023-02-23T10:59:02;97323.50;;;13.98;85.23
967;BME280;56108;48.730;9.304;2023-02-23T11:01:11;97328.50;;;14.13;85.24
967;BME280;56108;48.730;9.304;2023-02-23T11:03:24;97320.25;;;13.64;83.84
967;BME280;56108;48.730;9.304;2023-02-23T11:05:36;97322.78;;;12.60;89.31
967;BME280;56108;48.730;9.304;2023-02-23T11:07:51;97316.56;;;12.27;94.64
967;BME280;56108;48.730;9.304;2023-02-23T11:10:24;97312.69;;;12.20;95.00
967;BME280;56108;48.730;9.304;2023-02-23T11:12:39;97309.19;;;11.74;98.14
967;BME280;56108;48.730;9.304;2023-02-23T11:14:47;97308.59;;;11.82;98.89
967;BME280;56108;48.730;9.304;2023-02-23T11:16:57;97296.72;;;11.86;100.00
967;BME280;56108;48.730;9.304;2023-02-23T11:19:18;97300.06;;;12.11;100.00
967;BME280;56108;48.730;9.304;2023-02-23T11:21:29;97299.53;;;12.50;98.08
967;BME280;56108;48.730;9.304;2023-02-23T11:23:39;97293.94;;;12.42;96.26
967;BME280;56108;48.730;9.304;2023-02-23T11:25:50;97300.13;;;12.54;93.96
967;BME280;56108;48.730;9.304;2023-02-23T11:28:02;97295.97;;;12.18;95.09
967;BME280;56108;48.730;9.304;2023-02-23T11:30:12;97293.28;;;12.18;94.93
967;BME280;56108;48.730;9.304;2023-02-23T11:32:22;97301.13;;;12.42;94.10
967;BME280;56108;48.730;9.304;2023-02-23T11:34:35;97293.16;;;12.63;91.78
967;BME280;56108;48.730;9.304;2023-02-23T11:36:57;97290.38;;;12.64;90.83
967;BME280;56108;48.730;9.304;2023-02-23T11:39:17;97289.69;;;12.83;89.71
967;BME280;56108;48.730;9.304;2023-02-23T11:41:27;97284.66;;;12.69;88.14
967;BME280;56108;48.730;9.304;2023-02-23T11:43:47;97277.72;;;12.98;88.37
967;BME280;56108;48.730;9.304;2023-02-23T11:45:57;97280.88;;;12.71;84.61
967;BME280;56108;48.730;9.304;2023-02-23T11:48:06;97277.94;;;12.42;90.13
967;BME280;56108;48.730;9.304;2023-02-23T11:50:21;97276.81;;;12.56;90.34
967;BME280;56108;48.730;9.304;2023-02-23T11:52:31;97275.84;;;12.57;90.88
967;BME280;56108;48.730;9.304;2023-02-23T11:54:49;97268.13;;;12.32;88.66
967;BME280;56108;48.730;9.304;2023-02-23T11:56:57;97272.38;;;12.45;87.22
967;BME280;56108;48.730;9.304;2023-02-23T11:59:16;97270.94;;;12.30;84.75
967;BME280;56108;48.730;9.304;2023-02-23T12:01:36;97266.81;;;12.69;86.54
967;BME280;56108;48.730;9.304;2023-02-23T12:03:50;97270.06;;;13.05;81.34
967;BME280;56108;48.730;9.304;2023-02-23T12:05:59;97264.25;;;12.68;80.55
967;BME280;56108;48.730;9.304;2023-02-23T12:08:11;97280.00;;;12.82;78.04
967;BME280;56108;48.730;9.304;2023-02-23T12:10:28;97264.66;;;12.84;75.99